Terminal Aerodrome Forecast
Issued by NWS Greer, SC

Home | Current Version | Previous Version | Text Only | Print | Product List | Glossary On
Versions: 1 2 3 4 5 6 7 8 9 10 11 12 13 14 15 16 17 18 19 20 21 22 23 24 25 26 27 28 29 30 31 32 33 34
000
FTUS42 KGSP 051559 AAB
TAFAVL
TAF AMD
KAVL 051559Z 0516/0612 35009KT P6SM SCT020
      TEMPO 0516/0520 BKN020
     FM052000 11005KT P6SM VCSH OVC025
     FM052300 11006KT 6SM -RA BR OVC015
     FM060100 12006KT 4SM -RA BR OVC008
     FM060600 13008KT 1 1/2SM RA BR OVC003=

USA.gov is the U.S. government's official web portal to all federal, state and local government web resources and services.